Observations for LONDON GATWICK ARPT, United Kingdom (EGKK)

EGKK 280520Z 34005KT 310V020 8000 BKN007 16/15 Q0997
EGKK 280450Z 36005KT 6000 BKN006 15/15 Q0997
EGKK 280420Z 34005KT 3500 BR SCT005 BKN007 15/15 Q0997  
EGKK 280350Z 33005KT 3000 -RADZ SCT004 BKN006 15/15 Q0998   
EGKK 280320Z 34005KT 5000 -RA BKN006 15/15 Q0998 REDZ   
EGKK 280250Z 33005KT 3000 DZ SCT004 OVC007 15/15 Q0998  
EGKK 280220Z 34006KT 4000 -RA SCT004 BKN006 15/15 Q0998 
EGKK 280150Z 36005KT 3000 -RA BKN005 15/15 Q0999 REDZ   
EGKK 280120Z 33005KT 3000 DZ SCT004 BKN006 15/15 Q0999 REDZ 
EGKK 280050Z 34004KT 4500 DZ SCT004 OVC008 16/15 Q1000  
EGKK 280020Z VRB03KT 4100 -RA SCT005 BKN008 15/15 Q1000 RERA
EGKK 272350Z 02003KT 3300 RA SCT004 SCT008 15/15 Q1000 REDZ 
EGKK 272320Z 02004KT 340V060 4300 DZ SCT005 15/15 Q1000 
EGKK 272250Z 02005KT 3900 -RA SCT003 15/15 Q1001
EGKK 272220Z 02005KT 350V090 3600 -RA SCT004 16/15 Q1001 RERA   
EGKK 272150Z 03006KT 3300 RA SCT004 BKN008 16/15 Q1002  
EGKK 272120Z 05007KT 3000 RA SCT004 BKN007 16/16 Q1002  
EGKK 272050Z 06006KT 3000 RA SCT005 BKN031 16/16 Q1002  
EGKK 272020Z 05006KT 020V080 2500 RA BR BKN005 OVC011 16/16 Q1002   
EGKK 271950Z 07005KT 2500 RA BR BKN004 OVC020 16/16 Q1002   
EGKK 271920Z 04006KT 3500 RA OVC005 17/16 Q1002 REDZ
EGKK 271850Z 05005KT 3000 RADZ BKN004 BKN022 17/17 Q1002 REDZ   
EGKK 271820Z 08003KT 5000 RA BKN004 17/17 Q1003 REDZ
EGKK 271750Z 09002KT 5000 RA SCT011 BKN024 17/17 Q1003 REDZ 
EGKK 271720Z 09004KT 3400 RADZ BKN005 18/17 Q1003   
EGKK 271650Z 10003KT 5000 RA BKN006 18/17 Q1003 
EGKK 271620Z VRB02KT 6000 -RA FEW008 BKN030 18/17 Q1004 RERA
EGKK 271550Z VRB02KT 6000 RA FEW007 BKN027 18/17 Q1004  
EGKK 271520Z VRB02KT 6000 RA FEW007 BKN035 18/17 Q1004  
EGKK 271450Z 18003KT 8000 -RA SCT010 BKN014 19/17 Q1005 
EGKK 271420Z VRB02KT 9999 -RA FEW011 SCT023 19/16 Q1005 
EGKK 271350Z VRB03KT 9000 -RA FEW016 BKN023 19/15 Q1005 
EGKK 271320Z VRB03KT 9999 BKN022 20/15 Q1005
EGKK 271250Z 18004KT 140V220 9999 BKN024 20/15 Q1005
EGKK 271220Z VRB03KT 9999 -SHRA BKN025CB 20/15 Q1005 RETS   
EGKK 271150Z 14004KT 100V180 9999 -SHRA SCT048CB 20/14 Q1006
EGKK 271120Z 11005KT 070V150 9999 SCT048CB 20/14 Q1006  
EGKK 271050Z 09005KT 9999 FEW048 20/15 Q1006
EGKK 271020Z 10006KT 9999 -SHRA FEW015 19/14 Q1006  
EGKK 270950Z 10008KT 070V140 9999 FEW048 19/13 Q1006
EGKK 270920Z 10008KT 9999 FEW048 20/13 Q1007
EGKK 270850Z 10008KT 9999 FEW046 19/13 Q1007
EGKK 270820Z 09006KT 060V120 9999 SCT048 18/12 Q1007
EGKK 270750Z 10007KT 9999 BKN048 17/12 Q1007
EGKK 270720Z 08006KT 060V120 9999 BKN048 17/12 Q1008
EGKK 270650Z 08006KT 9999 BKN047 16/11 Q1008
EGKK 270620Z 08007KT 9999 BKN046 16/11 Q1008
EGKK 270550Z 08007KT 9999 BKN044 15/10 Q1008
EGKK 270520Z 07006KT 050V110 CAVOK 15/10 Q1008  
EGKK 270450Z 08008KT CAVOK 15/09 Q1009